Time;durP1;ratioP1;P1;durP2;ratioP2;P2;SDS_P1;SDS_P2;PMS_P1;PMS_P2;Temp;Humidity;BMP_temperature;BMP_pressure;BME280_temperature;BME280_humidity;BME280_pressure;Samples;Min_cycle;Max_cycle;Signal;HPM_P1;HPM_P2
2022/05/19 00:03:45;;;;;;;5.45;2.00;;;;;;;;;;8303632;28;20076;-58
2022/05/19 00:07:45;;;;;;;5.22;1.90;;;;;;;;;;8303734;28;20029;-58
2022/05/19 00:11:46;;;;;;;3.95;2.22;;;;;;;;;;8304401;28;20063;-59
2022/05/19 00:15:46;;;;;;;4.93;1.83;;;;;;;;;;8303278;28;20045;-57
2022/05/19 00:19:46;;;;;;;1.98;1.75;;;;;;;;;;8303160;28;20327;-57
2022/05/19 00:23:47;;;;;;;4.07;2.05;;;;;;;;;;8301441;28;20377;-57
2022/05/19 00:27:47;;;;;;;7.15;2.05;;;;;;;;;;8305055;28;20603;-57
2022/05/19 00:31:47;;;;;;;2.08;1.85;;;;;;;;;;8302164;28;20045;-57
2022/05/19 00:35:47;;;;;;;3.58;2.10;;;;;;;;;;8302753;28;20024;-58
2022/05/19 00:39:47;;;;;;;4.10;2.10;;;;;;;;;;8303333;28;20026;-58
2022/05/19 00:43:58;;;;;;;2.58;2.25;;;;;;;;;;8301745;28;20128;-57
2022/05/19 00:48:05;;;;;;;3.00;2.05;;;;;;;;;;8303603;28;20168;-57
2022/05/19 00:52:05;;;;;;;4.75;2.38;;;;;;;;;;8302262;28;20028;-58
2022/05/19 00:56:10;;;;;;;4.20;2.05;;;;;;;;;;8302686;28;20025;-57
2022/05/19 01:00:13;;;;;;;7.00;2.22;;;;;;;;;;8303832;28;20036;-57
2022/05/19 01:04:24;;;;;;;4.32;2.08;;;;;;;;;;8309421;28;20110;-59
2022/05/19 01:08:34;;;;;;;3.45;2.15;;;;;;;;;;8304800;28;20033;-58
2022/05/19 01:12:34;;;;;;;2.22;1.95;;;;;;;;;;8307796;28;20057;-57
2022/05/19 01:16:36;;;;;;;4.37;2.17;;;;;;;;;;8307139;28;20044;-57
2022/05/19 01:20:38;;;;;;;7.13;2.00;;;;;;;;;;8308223;28;20783;-58
2022/05/19 01:24:50;;;;;;;2.92;1.90;;;;;;;;;;8309490;28;20809;-59
2022/05/19 01:28:50;;;;;;;2.30;1.90;;;;;;;;;;8308562;28;20823;-57
2022/05/19 01:32:52;;;;;;;6.28;2.20;;;;;;;;;;8305977;28;20038;-58
2022/05/19 01:36:53;;;;;;;2.63;2.10;;;;;;;;;;8306226;28;20025;-58
2022/05/19 01:41:07;;;;;;;3.45;2.00;;;;;;;;;;8308013;28;20044;-58
2022/05/19 01:45:19;;;;;;;4.43;2.00;;;;;;;;;;8306465;28;20024;-59
2022/05/19 01:49:23;;;;;;;3.13;2.33;;;;;;;;;;8305640;28;20020;-58
2022/05/19 01:53:30;;;;;;;2.08;1.75;;;;;;;;;;8305441;28;20438;-58
2022/05/19 01:57:33;;;;;;;3.45;2.00;;;;;;;;;;8307581;28;20056;-57
2022/05/19 02:01:34;;;;;;;5.32;2.10;;;;;;;;;;8302622;28;20502;-58
2022/05/19 02:05:47;;;;;;;7.00;1.92;;;;;;;;;;8301283;28;20060;-58
2022/05/19 02:10:00;;;;;;;3.05;1.90;;;;;;;;;;8300613;28;20032;-57
2022/05/19 02:14:09;;;;;;;4.28;2.05;;;;;;;;;;8299757;28;20502;-57
2022/05/19 02:18:09;;;;;;;3.95;2.00;;;;;;;;;;8299907;28;20033;-57
2022/05/19 02:22:10;;;;;;;2.97;2.07;;;;;;;;;;8300164;28;20612;-57
2022/05/19 02:26:11;;;;;;;2.03;1.70;;;;;;;;;;8299282;28;21223;-58
2022/05/19 02:30:14;;;;;;;3.08;1.92;;;;;;;;;;8299227;28;20588;-58
2022/05/19 02:34:14;;;;;;;3.53;2.10;;;;;;;;;;8300777;28;20132;-57
2022/05/19 02:38:15;;;;;;;2.30;1.73;;;;;;;;;;8300876;28;20033;-58
2022/05/19 02:42:15;;;;;;;3.17;2.10;;;;;;;;;;8297484;28;20292;-58
2022/05/19 02:46:15;;;;;;;4.15;2.00;;;;;;;;;;8297964;28;20520;-58
2022/05/19 02:50:17;;;;;;;2.45;1.75;;;;;;;;;;8304030;28;20095;-58
2022/05/19 02:54:21;;;;;;;2.40;1.95;;;;;;;;;;8304346;28;20674;-57
2022/05/19 02:58:21;;;;;;;2.35;2.00;;;;;;;;;;8306139;28;20295;-57
2022/05/19 03:02:21;;;;;;;2.08;1.90;;;;;;;;;;8305662;28;20496;-58
2022/05/19 03:06:21;;;;;;;6.32;1.90;;;;;;;;;;8303851;28;20373;-57
2022/05/19 03:10:22;;;;;;;4.60;2.17;;;;;;;;;;8304697;28;20576;-58
2022/05/19 03:14:22;;;;;;;4.18;2.10;;;;;;;;;;8305826;28;20390;-58
2022/05/19 03:18:23;;;;;;;7.68;2.38;;;;;;;;;;8304333;28;20053;-57
2022/05/19 03:22:25;;;;;;;2.70;1.80;;;;;;;;;;8308217;28;20016;-58
2022/05/19 03:26:25;;;;;;;4.25;2.00;;;;;;;;;;8307407;28;20071;-58
2022/05/19 03:30:25;;;;;;;4.50;2.13;;;;;;;;;;8311251;28;20303;-58
2022/05/19 03:34:26;;;;;;;3.65;2.00;;;;;;;;;;8309019;28;20351;-57
2022/05/19 03:38:26;;;;;;;3.28;1.77;;;;;;;;;;8312088;28;20025;-57
2022/05/19 03:42:26;;;;;;;4.57;2.40;;;;;;;;;;8308197;28;20033;-58
2022/05/19 03:46:26;;;;;;;3.17;2.07;;;;;;;;;;8312416;28;20041;-58
2022/05/19 03:50:27;;;;;;;3.08;2.00;;;;;;;;;;8309768;28;20284;-58
2022/05/19 03:54:27;;;;;;;4.18;2.00;;;;;;;;;;8310774;28;20036;-57
2022/05/19 03:58:28;;;;;;;2.25;1.92;;;;;;;;;;8307396;28;20028;-59
2022/05/19 04:02:28;;;;;;;1.87;1.70;;;;;;;;;;8310284;28;20088;-58
2022/05/19 04:06:29;;;;;;;3.90;1.80;;;;;;;;;;8309976;28;20032;-58
2022/05/19 04:10:29;;;;;;;3.95;2.03;;;;;;;;;;8308458;28;20079;-58
2022/05/19 04:14:29;;;;;;;2.97;2.15;;;;;;;;;;8309748;28;20025;-58
2022/05/19 04:18:29;;;;;;;2.38;1.98;;;;;;;;;;8307236;28;20034;-58
2022/05/19 04:22:30;;;;;;;4.72;1.80;;;;;;;;;;8304700;28;20024;-58
2022/05/19 04:26:30;;;;;;;2.40;1.70;;;;;;;;;;8307846;28;20383;-58
2022/05/19 04:30:30;;;;;;;4.18;1.75;;;;;;;;;;8307831;28;20037;-58
2022/05/19 04:34:31;;;;;;;2.00;1.80;;;;;;;;;;8310573;28;20032;-59
2022/05/19 04:38:31;;;;;;;4.85;2.10;;;;;;;;;;8308788;28;20029;-57
2022/05/19 04:42:31;;;;;;;2.20;1.95;;;;;;;;;;8307203;28;20277;-58
2022/05/19 04:46:31;;;;;;;5.05;1.77;;;;;;;;;;8306972;28;20081;-58
2022/05/19 04:50:31;;;;;;;2.10;1.83;;;;;;;;;;8307535;28;20086;-58
2022/05/19 04:54:32;;;;;;;3.78;2.10;;;;;;;;;;8306487;28;20036;-57
2022/05/19 04:58:32;;;;;;;2.00;1.80;;;;;;;;;;8305985;28;20052;-57
2022/05/19 05:02:32;;;;;;;1.75;1.65;;;;;;;;;;8308880;28;20538;-57
2022/05/19 05:06:32;;;;;;;3.95;1.85;;;;;;;;;;8305937;28;20040;-57
2022/05/19 05:10:33;;;;;;;4.07;1.90;;;;;;;;;;8307333;28;20037;-58
2022/05/19 05:14:33;;;;;;;5.32;1.90;;;;;;;;;;8306790;28;20326;-58
2022/05/19 05:18:33;;;;;;;2.22;1.80;;;;;;;;;;8306424;28;20398;-58
2022/05/19 05:22:36;;;;;;;5.72;1.90;;;;;;;;;;8307544;28;20029;-58
2022/05/19 05:26:37;;;;;;;5.25;1.88;;;;;;;;;;8302972;28;20377;-58
2022/05/19 05:30:37;;;;;;;3.65;1.80;;;;;;;;;;8306705;28;20079;-59
2022/05/19 05:34:37;;;;;;;3.50;2.10;;;;;;;;;;8307759;28;20021;-59
2022/05/19 05:38:37;;;;;;;3.03;1.80;;;;;;;;;;8308338;28;20118;-60
2022/05/19 05:42:38;;;;;;;2.65;1.80;;;;;;;;;;8307482;28;20029;-58
2022/05/19 05:46:40;;;;;;;4.25;1.92;;;;;;;;;;8307128;28;20378;-59
2022/05/19 05:50:40;;;;;;;4.40;1.85;;;;;;;;;;8305734;28;20059;-58
2022/05/19 05:54:41;;;;;;;7.25;2.00;;;;;;;;;;8306101;28;20280;-60
2022/05/19 05:58:41;;;;;;;4.97;2.13;;;;;;;;;;8305023;28;20044;-59
2022/05/19 06:02:42;;;;;;;4.68;1.92;;;;;;;;;;8305490;28;20045;-59
2022/05/19 06:06:45;;;;;;;3.20;2.10;;;;;;;;;;8305675;28;20314;-59
2022/05/19 06:10:46;;;;;;;2.72;2.00;;;;;;;;;;8303292;28;20150;-59
2022/05/19 06:14:46;;;;;;;2.65;1.85;;;;;;;;;;8305189;28;20025;-59
2022/05/19 06:18:46;;;;;;;5.95;1.90;;;;;;;;;;8304743;28;20041;-59
2022/05/19 06:22:47;;;;;;;2.40;1.80;;;;;;;;;;8303769;28;20445;-59
2022/05/19 06:26:48;;;;;;;3.50;1.80;;;;;;;;;;8306561;28;20060;-59
2022/05/19 06:30:48;;;;;;;2.28;1.70;;;;;;;;;;8304869;28;20479;-59
2022/05/19 06:34:48;;;;;;;4.53;2.00;;;;;;;;;;8305757;28;20048;-59
2022/05/19 06:38:48;;;;;;;4.90;1.70;;;;;;;;;;8305760;28;20024;-59
2022/05/19 06:42:48;;;;;;;3.72;1.70;;;;;;;;;;8305202;28;20272;-59
2022/05/19 06:46:49;;;;;;;4.38;1.95;;;;;;;;;;8303899;28;20045;-59
2022/05/19 06:50:49;;;;;;;6.40;2.00;;;;;;;;;;8305745;28;20128;-59
2022/05/19 06:54:51;;;;;;;4.22;1.73;;;;;;;;;;8306878;28;20273;-60
2022/05/19 06:58:52;;;;;;;6.82;1.90;;;;;;;;;;8305682;28;20025;-59
2022/05/19 07:02:53;;;;;;;3.27;1.90;;;;;;;;;;8304902;28;20048;-59
2022/05/19 07:06:54;;;;;;;2.55;1.80;;;;;;;;;;8305441;28;20288;-59
2022/05/19 07:10:54;;;;;;;2.30;1.60;;;;;;;;;;8306005;28;20505;-59
2022/05/19 07:14:55;;;;;;;4.55;1.70;;;;;;;;;;8304216;28;20638;-59
2022/05/19 07:20:43;;;;;;;4.90;1.85;;;;;;;;;;8302362;28;20771;-59
2022/05/19 07:23:19;;;;;;;6.05;1.77;;;;;;;;;;8305596;28;20573;-59
2022/05/19 07:27:19;;;;;;;4.50;1.90;;;;;;;;;;8305575;28;20221;-59
2022/05/19 07:31:20;;;;;;;4.77;1.57;;;;;;;;;;8304989;28;20453;-59
2022/05/19 07:35:20;;;;;;;2.67;1.75;;;;;;;;;;8307827;28;20035;-59
2022/05/19 07:39:22;;;;;;;2.55;1.60;;;;;;;;;;8311228;28;20039;-60
2022/05/19 07:43:37;;;;;;;2.92;1.80;;;;;;;;;;8309987;28;20218;-59
2022/05/19 07:47:38;;;;;;;4.00;1.80;;;;;;;;;;8311493;28;20136;-59
2022/05/19 07:51:40;;;;;;;3.50;2.13;;;;;;;;;;8309646;28;20056;-60
2022/05/19 07:55:40;;;;;;;2.03;1.73;;;;;;;;;;8310910;28;20025;-59
2022/05/19 07:59:40;;;;;;;3.17;1.70;;;;;;;;;;8310136;28;20033;-59
2022/05/19 08:03:41;;;;;;;4.55;2.28;;;;;;;;;;8309232;28;20048;-60
2022/05/19 08:07:41;;;;;;;3.72;1.92;;;;;;;;;;8308291;28;20152;-59
2022/05/19 08:11:41;;;;;;;3.92;2.00;;;;;;;;;;8308868;28;20021;-59
2022/05/19 08:15:45;;;;;;;4.85;1.90;;;;;;;;;;8308168;28;20037;-59
2022/05/19 08:19:47;;;;;;;7.88;2.13;;;;;;;;;;8308488;28;20041;-60
2022/05/19 08:23:52;;;;;;;11.02;2.28;;;;;;;;;;8303531;28;20478;-59
2022/05/19 08:27:53;;;;;;;6.45;1.83;;;;;;;;;;8306766;28;20147;-59
2022/05/19 08:31:53;;;;;;;5.30;2.33;;;;;;;;;;8309138;28;20042;-59
2022/05/19 08:35:54;;;;;;;6.03;2.00;;;;;;;;;;8306170;28;20554;-59
2022/05/19 08:39:54;;;;;;;6.82;2.10;;;;;;;;;;8305362;28;20268;-59
2022/05/19 08:43:57;;;;;;;6.32;2.30;;;;;;;;;;8309879;28;20040;-59
2022/05/19 08:48:03;;;;;;;5.20;2.17;;;;;;;;;;8306850;28;20048;-59
2022/05/19 08:52:05;;;;;;;8.55;2.10;;;;;;;;;;8308677;28;20106;-59
2022/05/19 08:56:19;;;;;;;7.17;1.80;;;;;;;;;;8308068;28;20024;-59
2022/05/19 09:00:24;;;;;;;6.80;2.10;;;;;;;;;;8310297;28;20025;-59
2022/05/19 09:04:36;;;;;;;5.35;1.92;;;;;;;;;;8309473;28;20012;-60
2022/05/19 09:08:49;;;;;;;3.97;2.00;;;;;;;;;;8308997;28;20040;-60
2022/05/19 09:12:52;;;;;;;3.97;2.10;;;;;;;;;;8311322;28;20048;-59
2022/05/19 09:16:55;;;;;;;7.50;2.50;;;;;;;;;;8310853;28;20045;-59
2022/05/19 09:20:55;;;;;;;6.63;2.00;;;;;;;;;;8307327;28;20032;-60
2022/05/19 09:24:56;;;;;;;4.20;2.17;;;;;;;;;;8308303;28;21868;-59
2022/05/19 09:28:57;;;;;;;3.85;1.75;;;;;;;;;;8310847;28;20030;-60
2022/05/19 09:32:58;;;;;;;2.83;1.97;;;;;;;;;;8306347;28;20041;-59
2022/05/19 09:37:06;;;;;;;4.75;2.20;;;;;;;;;;8301581;28;20115;-59
2022/05/19 09:41:20;;;;;;;6.43;2.30;;;;;;;;;;8296308;28;20780;-60
2022/05/19 09:45:24;;;;;;;3.17;1.95;;;;;;;;;;8296983;28;20057;-59
2022/05/19 09:49:29;;;;;;;5.40;1.92;;;;;;;;;;8300823;28;20772;-59
2022/05/19 09:53:36;;;;;;;3.65;2.13;;;;;;;;;;8299820;28;20456;-59
2022/05/19 09:57:44;;;;;;;8.20;2.10;;;;;;;;;;8296764;28;20042;-59
2022/05/19 10:01:46;;;;;;;5.38;2.00;;;;;;;;;;8300261;28;20455;-59
2022/05/19 10:05:49;;;;;;;6.30;2.10;;;;;;;;;;8305630;28;20025;-60
2022/05/19 10:09:49;;;;;;;3.95;1.88;;;;;;;;;;8300118;28;20167;-60
2022/05/19 10:14:10;;;;;;;3.77;2.23;;;;;;;;;;8299095;28;20574;-60
2022/05/19 10:18:13;;;;;;;7.65;2.20;;;;;;;;;;8297987;28;20507;-60
2022/05/19 10:22:19;;;;;;;4.10;2.03;;;;;;;;;;8299991;28;20022;-60
2022/05/19 10:26:20;;;;;;;5.75;2.05;;;;;;;;;;8300645;28;20021;-60
2022/05/19 10:35:07;;;;;;;6.10;2.10;;;;;;;;;;8297948;28;20028;-60
2022/05/19 10:39:36;;;;;;;6.65;2.50;;;;;;;;;;8300323;28;20132;-60
2022/05/19 10:43:55;;;;;;;2.50;2.10;;;;;;;;;;8279035;28;20137;-61
2022/05/19 10:47:58;;;;;;;6.50;2.45;;;;;;;;;;8297663;28;20076;-60
2022/05/19 10:52:01;;;;;;;5.55;2.10;;;;;;;;;;8298192;28;20037;-60
2022/05/19 10:56:07;;;;;;;4.57;2.20;;;;;;;;;;8299927;28;20501;-60
2022/05/19 11:00:23;;;;;;;4.88;2.00;;;;;;;;;;8297648;28;20018;-61
2022/05/19 11:04:27;;;;;;;2.97;2.10;;;;;;;;;;8303597;28;20846;-60
2022/05/19 11:08:28;;;;;;;5.57;2.22;;;;;;;;;;8306364;28;20953;-61
2022/05/19 11:12:29;;;;;;;5.95;2.15;;;;;;;;;;8311025;28;20021;-61
2022/05/19 11:16:37;;;;;;;4.22;2.00;;;;;;;;;;8313249;28;20037;-60
2022/05/19 11:20:56;;;;;;;5.95;2.40;;;;;;;;;;8307909;28;20082;-59
2022/05/19 11:29:39;;;;;;;5.35;2.15;;;;;;;;;;8300014;28;20047;-59
2022/05/19 11:33:41;;;;;;;4.75;2.20;;;;;;;;;;8307609;28;20085;-59
2022/05/19 11:37:42;;;;;;;4.90;2.20;;;;;;;;;;8311255;28;20057;-60
2022/05/19 11:41:43;;;;;;;6.13;1.90;;;;;;;;;;8309379;28;20029;-59
2022/05/19 11:45:48;;;;;;;6.13;2.22;;;;;;;;;;8307201;28;20053;-59
2022/05/19 11:58:51;;;;;;;2.65;2.00;;;;;;;;;;8309130;28;20092;-59
2022/05/19 12:02:51;;;;;;;6.90;2.20;;;;;;;;;;8311405;28;20037;-59
2022/05/19 12:07:04;;;;;;;4.80;1.90;;;;;;;;;;8310110;28;20026;-60
2022/05/19 12:11:18;;;;;;;3.33;1.90;;;;;;;;;;8308336;28;20031;-59
2022/05/19 12:15:18;;;;;;;3.95;2.20;;;;;;;;;;8308597;28;20785;-59
2022/05/19 12:19:38;;;;;;;4.43;1.90;;;;;;;;;;8309832;28;20115;-59
2022/05/19 12:23:39;;;;;;;4.30;1.95;;;;;;;;;;8308622;28;20400;-60
2022/05/19 12:27:52;;;;;;;5.80;2.28;;;;;;;;;;8307256;28;20576;-60
2022/05/19 12:31:59;;;;;;;3.28;1.80;;;;;;;;;;8306889;28;21207;-60
2022/05/19 12:35:59;;;;;;;5.78;2.33;;;;;;;;;;8308548;28;20040;-59
2022/05/19 12:40:18;;;;;;;5.77;2.50;;;;;;;;;;8306567;28;20589;-59
2022/05/19 12:44:41;;;;;;;4.45;2.20;;;;;;;;;;8309021;28;20029;-59
2022/05/19 12:48:46;;;;;;;6.13;2.13;;;;;;;;;;8308978;28;20497;-59
2022/05/19 12:52:47;;;;;;;4.28;2.05;;;;;;;;;;8309190;28;20037;-59
2022/05/19 12:56:51;;;;;;;5.10;2.10;;;;;;;;;;8307026;28;20021;-59
2022/05/19 13:00:52;;;;;;;6.13;2.55;;;;;;;;;;8309245;28;20450;-59
2022/05/19 13:04:58;;;;;;;7.38;2.25;;;;;;;;;;8309626;28;20023;-59
2022/05/19 13:09:01;;;;;;;3.35;2.08;;;;;;;;;;8311219;28;20033;-59
2022/05/19 13:13:07;;;;;;;5.72;1.80;;;;;;;;;;8305161;28;20033;-60
2022/05/19 13:17:22;;;;;;;6.53;2.10;;;;;;;;;;8304302;28;20060;-60
2022/05/19 13:21:24;;;;;;;4.57;2.15;;;;;;;;;;8305894;28;20321;-59
2022/05/19 13:25:25;;;;;;;6.00;2.15;;;;;;;;;;8308638;28;20064;-59
2022/05/19 13:33:50;;;;;;;5.85;2.10;;;;;;;;;;8300429;28;20485;-59
2022/05/19 13:37:51;;;;;;;4.75;2.03;;;;;;;;;;8301964;28;20057;-59
2022/05/19 13:41:53;;;;;;;3.47;2.20;;;;;;;;;;8302824;28;20021;-59
2022/05/19 13:45:55;;;;;;;5.40;2.22;;;;;;;;;;8303668;28;20049;-59
2022/05/19 13:49:58;;;;;;;6.60;2.40;;;;;;;;;;8305088;28;20033;-59
2022/05/19 13:53:59;;;;;;;4.78;2.20;;;;;;;;;;8302369;28;20104;-59
2022/05/19 13:57:59;;;;;;;4.97;2.35;;;;;;;;;;8304933;28;20699;-59
2022/05/19 14:02:07;;;;;;;6.13;2.00;;;;;;;;;;8301631;28;20040;-59
2022/05/19 14:06:08;;;;;;;5.65;2.22;;;;;;;;;;8305338;28;20275;-60
2022/05/19 14:10:13;;;;;;;5.28;2.60;;;;;;;;;;8304939;28;20105;-59
2022/05/19 14:14:21;;;;;;;6.53;2.75;;;;;;;;;;8308288;28;20028;-60
2022/05/19 14:18:23;;;;;;;6.07;2.35;;;;;;;;;;8303966;28;20048;-59
2022/05/19 14:22:23;;;;;;;;;;;;;;;;;;8305664;28;20025;-60
2022/05/19 14:26:52;;;;;;;5.63;2.47;;;;;;;;;;8304982;28;20266;-60
2022/05/19 14:30:57;;;;;;;6.50;2.40;;;;;;;;;;8306556;28;20755;-60
2022/05/19 14:35:17;;;;;;;8.88;2.60;;;;;;;;;;8305302;28;20334;-59
2022/05/19 14:39:19;;;;;;;9.63;2.40;;;;;;;;;;8301157;28;20021;-60
2022/05/19 14:43:24;;;;;;;4.43;2.20;;;;;;;;;;8305908;28;20025;-59
2022/05/19 14:47:24;;;;;;;3.35;2.22;;;;;;;;;;8309519;28;20033;-60
2022/05/19 14:51:29;;;;;;;5.18;2.10;;;;;;;;;;8313095;28;20514;-64
2022/05/19 14:55:35;;;;;;;5.53;2.25;;;;;;;;;;8305587;28;20036;-59
2022/05/19 14:59:35;;;;;;;6.40;2.40;;;;;;;;;;8305748;28;20022;-60
2022/05/19 15:03:36;;;;;;;4.90;2.53;;;;;;;;;;8307329;28;20122;-59
2022/05/19 15:07:36;;;;;;;5.00;2.40;;;;;;;;;;8307985;28;20018;-58
2022/05/19 15:11:36;;;;;;;8.75;2.92;;;;;;;;;;8304000;28;20025;-57
2022/05/19 15:15:37;;;;;;;8.68;2.70;;;;;;;;;;8310258;28;20041;-58
2022/05/19 15:19:37;;;;;;;4.75;2.67;;;;;;;;;;8307341;28;20048;-56
2022/05/19 15:23:38;;;;;;;10.82;3.05;;;;;;;;;;8310035;28;20387;-61
2022/05/19 15:27:41;;;;;;;7.30;2.57;;;;;;;;;;8307942;28;20025;-57
2022/05/19 15:31:41;;;;;;;11.82;2.80;;;;;;;;;;8304032;28;20041;-57
2022/05/19 15:35:42;;;;;;;8.25;2.92;;;;;;;;;;8309339;28;20043;-58
2022/05/19 15:39:43;;;;;;;14.85;2.88;;;;;;;;;;8309344;28;20920;-58
2022/05/19 15:43:44;;;;;;;8.40;2.92;;;;;;;;;;8309880;28;20049;-58
2022/05/19 15:47:47;;;;;;;11.43;2.70;;;;;;;;;;8307712;28;20041;-58
2022/05/19 15:51:47;;;;;;;9.20;3.13;;;;;;;;;;8310194;28;20276;-57
2022/05/19 15:55:49;;;;;;;13.30;3.20;;;;;;;;;;8305607;28;20154;-58
2022/05/19 15:59:49;;;;;;;26.98;3.10;;;;;;;;;;8310339;28;20025;-60
2022/05/19 16:03:49;;;;;;;26.30;2.95;;;;;;;;;;8307597;28;20044;-58
2022/05/19 16:07:51;;;;;;;12.45;2.10;;;;;;;;;;8306668;28;20034;-58
2022/05/19 16:11:52;;;;;;;10.93;1.95;;;;;;;;;;8307746;28;20021;-57
2022/05/19 16:15:52;;;;;;;8.27;2.20;;;;;;;;;;8306583;28;20041;-58
2022/05/19 16:19:52;;;;;;;5.95;1.63;;;;;;;;;;8308882;28;20118;-58
2022/05/19 16:23:52;;;;;;;4.05;1.70;;;;;;;;;;8309430;28;20079;-58
2022/05/19 16:27:53;;;;;;;4.05;1.58;;;;;;;;;;8309849;28;20079;-58
2022/05/19 16:31:54;;;;;;;8.15;1.95;;;;;;;;;;8308069;28;20117;-57
2022/05/19 16:35:54;;;;;;;3.22;1.52;;;;;;;;;;8307130;28;20033;-58
2022/05/19 16:39:55;;;;;;;6.05;1.80;;;;;;;;;;8308614;28;20017;-58
2022/05/19 16:43:55;;;;;;;7.00;1.98;;;;;;;;;;8308170;28;20025;-58
2022/05/19 16:47:58;;;;;;;6.05;2.10;;;;;;;;;;8308121;28;20034;-57
2022/05/19 16:51:58;;;;;;;2.88;1.42;;;;;;;;;;8308647;28;20090;-58
2022/05/19 17:00:25;;;;;;;4.38;1.70;;;;;;;;;;8307625;28;20095;-58
2022/05/19 17:04:25;;;;;;;3.83;1.75;;;;;;;;;;8307416;28;20032;-58
2022/05/19 17:08:29;;;;;;;5.88;2.10;;;;;;;;;;8309013;28;20021;-58
2022/05/19 17:12:30;;;;;;;5.43;1.98;;;;;;;;;;8305753;28;20022;-58
2022/05/19 17:16:30;;;;;;;6.67;2.17;;;;;;;;;;8305606;28;20486;-58
2022/05/19 17:20:32;;;;;;;5.45;2.08;;;;;;;;;;8306820;28;20457;-59
2022/05/19 17:24:32;;;;;;;3.88;1.70;;;;;;;;;;8307191;28;20025;-58
2022/05/19 17:28:32;;;;;;;4.53;1.90;;;;;;;;;;8306591;28;20120;-58
2022/05/19 17:32:32;;;;;;;4.50;2.05;;;;;;;;;;8305722;28;20639;-58
2022/05/19 17:36:36;;;;;;;4.43;1.97;;;;;;;;;;8305091;28;20021;-60
2022/05/19 17:40:37;;;;;;;3.35;1.88;;;;;;;;;;8306117;28;20079;-58
2022/05/19 17:44:37;;;;;;;4.60;1.90;;;;;;;;;;8304555;28;20069;-60
2022/05/19 17:48:38;;;;;;;3.47;1.95;;;;;;;;;;8305942;28;20168;-58
2022/05/19 17:52:39;;;;;;;2.97;1.90;;;;;;;;;;8304243;28;20025;-60
2022/05/19 17:56:39;;;;;;;5.25;1.90;;;;;;;;;;8304642;28;20026;-60
2022/05/19 18:00:40;;;;;;;4.30;1.90;;;;;;;;;;8307044;28;20149;-58
2022/05/19 18:04:41;;;;;;;1.92;1.60;;;;;;;;;;8306644;28;20422;-60
2022/05/19 18:08:41;;;;;;;2.47;1.73;;;;;;;;;;8312817;28;20040;-58
2022/05/19 18:12:41;;;;;;;17.00;1.93;;;;;;;;;;8304816;28;20108;-58
2022/05/19 18:21:05;;;;;;;13.73;2.00;;;;;;;;;;8304563;28;20159;-57
2022/05/19 18:25:05;;;;;;;4.35;1.77;;;;;;;;;;8305065;28;20029;-58
2022/05/19 18:29:06;;;;;;;3.20;1.83;;;;;;;;;;8303283;28;20406;-57
2022/05/19 18:33:07;;;;;;;9.52;2.30;;;;;;;;;;8302127;28;20487;-58
2022/05/19 18:37:07;;;;;;;4.78;1.73;;;;;;;;;;8304451;28;20052;-60
2022/05/19 18:45:26;;;;;;;4.85;2.03;;;;;;;;;;8305033;28;20090;-58
2022/05/19 18:49:26;;;;;;;4.28;2.00;;;;;;;;;;8304341;28;20378;-57
2022/05/19 18:53:27;;;;;;;5.40;2.10;;;;;;;;;;8304192;28;20028;-57
2022/05/19 18:57:29;;;;;;;9.95;2.70;;;;;;;;;;8304865;28;20037;-58
2022/05/19 19:01:30;;;;;;;5.00;2.20;;;;;;;;;;8304180;28;20140;-57
2022/05/19 19:05:30;;;;;;;6.20;2.30;;;;;;;;;;8305328;28;20467;-59
2022/05/19 19:09:30;;;;;;;5.40;2.10;;;;;;;;;;8302963;28;20079;-57
2022/05/19 19:13:30;;;;;;;4.32;2.10;;;;;;;;;;8303379;28;20033;-58
2022/05/19 19:17:30;;;;;;;7.38;2.00;;;;;;;;;;8303204;28;20064;-57
2022/05/19 19:21:38;;;;;;;2.28;1.90;;;;;;;;;;8296965;28;20021;-57
2022/05/19 19:25:38;;;;;;;6.15;2.05;;;;;;;;;;8298274;28;20259;-59
2022/05/19 19:29:40;;;;;;;5.70;1.80;;;;;;;;;;8303110;28;20052;-59
2022/05/19 19:33:40;;;;;;;3.05;1.90;;;;;;;;;;8306176;28;20484;-59
2022/05/19 19:37:41;;;;;;;4.82;2.20;;;;;;;;;;8310235;28;20060;-59
2022/05/19 19:41:42;;;;;;;2.88;2.13;;;;;;;;;;8310323;28;20017;-59
2022/05/19 19:45:44;;;;;;;4.30;2.30;;;;;;;;;;8308998;28;20131;-59
2022/05/19 19:49:44;;;;;;;6.65;2.60;;;;;;;;;;8309708;28;20025;-60
2022/05/19 19:53:45;;;;;;;3.35;1.98;;;;;;;;;;8308427;28;20029;-59
2022/05/19 19:57:45;;;;;;;3.25;2.00;;;;;;;;;;8310200;28;20037;-59
2022/05/19 20:01:46;;;;;;;3.00;2.13;;;;;;;;;;8309489;28;20039;-59
2022/05/19 20:05:46;;;;;;;3.83;2.10;;;;;;;;;;8307421;28;20671;-59
2022/05/19 20:09:46;;;;;;;4.55;2.40;;;;;;;;;;8308972;28;20083;-59
2022/05/19 20:13:49;;;;;;;3.35;2.00;;;;;;;;;;8310813;28;20026;-61
2022/05/19 20:17:49;;;;;;;3.57;2.23;;;;;;;;;;8306906;28;20063;-60
2022/05/19 20:21:49;;;;;;;2.47;2.20;;;;;;;;;;8307641;28;20359;-59
2022/05/19 20:25:49;;;;;;;2.33;1.95;;;;;;;;;;8310599;28;20061;-59
2022/05/19 20:29:50;;;;;;;2.87;2.10;;;;;;;;;;8310739;28;20116;-59
2022/05/19 20:33:50;;;;;;;3.03;1.92;;;;;;;;;;8307590;28;20095;-59
2022/05/19 20:37:51;;;;;;;3.08;2.30;;;;;;;;;;8307894;28;20036;-59
2022/05/19 20:41:51;;;;;;;3.15;2.20;;;;;;;;;;8307902;28;20776;-59
2022/05/19 20:45:51;;;;;;;2.95;2.30;;;;;;;;;;8307376;28;20037;-60
2022/05/19 20:49:52;;;;;;;5.00;2.65;;;;;;;;;;8307529;28;20068;-59
2022/05/19 20:53:52;;;;;;;3.45;2.10;;;;;;;;;;8309040;28;20021;-59
2022/05/19 20:57:52;;;;;;;2.10;1.90;;;;;;;;;;8308679;28;20033;-60
2022/05/19 21:01:52;;;;;;;3.97;2.25;;;;;;;;;;8306348;28;20034;-59
2022/05/19 21:05:53;;;;;;;3.47;2.00;;;;;;;;;;8307203;28;20484;-60
2022/05/19 21:09:53;;;;;;;3.92;2.47;;;;;;;;;;8308172;28;20729;-59
2022/05/19 21:13:53;;;;;;;3.47;2.17;;;;;;;;;;8306785;28;20553;-60
2022/05/19 21:17:53;;;;;;;5.20;2.07;;;;;;;;;;8309305;28;20052;-59
2022/05/19 21:21:54;;;;;;;3.15;2.17;;;;;;;;;;8307955;28;20025;-59
2022/05/19 21:25:54;;;;;;;2.50;2.00;;;;;;;;;;8308415;28;20436;-60
2022/05/19 21:29:55;;;;;;;2.58;2.10;;;;;;;;;;8308208;28;20354;-59
2022/05/19 21:33:56;;;;;;;3.40;2.30;;;;;;;;;;8304833;28;20120;-59
2022/05/19 21:37:56;;;;;;;3.47;2.13;;;;;;;;;;8305836;28;20151;-59
2022/05/19 21:41:56;;;;;;;4.68;2.30;;;;;;;;;;8306565;28;21043;-60
2022/05/19 21:45:58;;;;;;;2.45;2.03;;;;;;;;;;8304696;28;20148;-59
2022/05/19 21:49:58;;;;;;;3.00;1.98;;;;;;;;;;8307227;28;20024;-59
2022/05/19 21:58:17;;;;;;;3.95;2.25;;;;;;;;;;8307287;28;20283;-59
2022/05/19 22:02:18;;;;;;;2.63;2.30;;;;;;;;;;8305265;28;20042;-59
2022/05/19 22:10:38;;;;;;;3.58;2.30;;;;;;;;;;8308788;28;20101;-59
2022/05/19 22:14:38;;;;;;;3.70;2.38;;;;;;;;;;8302524;28;20029;-60
2022/05/19 22:18:39;;;;;;;3.80;2.13;;;;;;;;;;8303917;28;20136;-59
2022/05/19 22:22:39;;;;;;;2.67;2.15;;;;;;;;;;8305336;28;20067;-60
2022/05/19 22:26:39;;;;;;;6.40;2.47;;;;;;;;;;8306684;28;20037;-59
2022/05/19 22:30:40;;;;;;;2.95;2.33;;;;;;;;;;8304729;28;20470;-59
2022/05/19 22:34:41;;;;;;;2.13;1.90;;;;;;;;;;8303818;28;20112;-59
2022/05/19 22:38:41;;;;;;;4.37;2.30;;;;;;;;;;8307392;28;20033;-59
2022/05/19 22:42:42;;;;;;;4.97;2.03;;;;;;;;;;8303883;28;20319;-59
2022/05/19 22:51:02;;;;;;;4.45;2.58;;;;;;;;;;8304295;28;20036;-60
2022/05/19 22:55:02;;;;;;;3.17;2.60;;;;;;;;;;8303589;28;20074;-58
2022/05/19 22:59:03;;;;;;;6.53;2.60;;;;;;;;;;8306072;28;20021;-59
2022/05/19 23:03:03;;;;;;;4.28;2.42;;;;;;;;;;8303866;28;20064;-59
2022/05/19 23:07:04;;;;;;;4.43;2.88;;;;;;;;;;8323257;28;20527;-59
2022/05/19 23:11:04;;;;;;;3.10;2.60;;;;;;;;;;8312159;28;20174;-59
2022/05/19 23:15:05;;;;;;;5.72;3.28;;;;;;;;;;8309594;28;20772;-60
2022/05/19 23:19:05;;;;;;;3.70;2.97;;;;;;;;;;8312144;28;20037;-58
2022/05/19 23:23:07;;;;;;;3.83;3.30;;;;;;;;;;8311108;28;20086;-60
2022/05/19 23:27:07;;;;;;;5.75;2.45;;;;;;;;;;8309303;28;20021;-60
2022/05/19 23:31:08;;;;;;;6.60;2.73;;;;;;;;;;8308798;28;20045;-60
2022/05/19 23:35:08;;;;;;;3.88;2.60;;;;;;;;;;8309323;28;20578;-59
2022/05/19 23:39:09;;;;;;;4.57;2.70;;;;;;;;;;8310874;28;20125;-60
2022/05/19 23:43:09;;;;;;;4.10;2.75;;;;;;;;;;8308715;28;20132;-59
2022/05/19 23:47:10;;;;;;;4.10;2.70;;;;;;;;;;8307826;28;20045;-60
2022/05/19 23:51:11;;;;;;;3.35;2.50;;;;;;;;;;8308480;28;20025;-59
2022/05/19 23:55:12;;;;;;;2.67;2.25;;;;;;;;;;8308686;28;20056;-60
2022/05/19 23:59:12;;;;;;;7.72;2.90;;;;;;;;;;8310670;28;20021;-59
